sensor_id;sensor_type;location;lat;lon;timestamp;P1;durP1;ratioP1;P2;durP2;ratioP2
49942;SDS011;36011;53.362;58.948;2022-10-31T00:01:27;3.83;;;2.25;;
49942;SDS011;36011;53.362;58.948;2022-10-31T00:04:41;4.32;;;2.45;;
49942;SDS011;36011;53.362;58.948;2022-10-31T00:07:51;5.45;;;3.10;;
49942;SDS011;36011;53.362;58.948;2022-10-31T00:10:58;4.03;;;2.42;;
49942;SDS011;36011;53.362;58.948;2022-10-31T00:14:03;3.70;;;2.17;;
49942;SDS011;36011;53.362;58.948;2022-10-31T00:17:07;4.55;;;2.72;;
49942;SDS011;36011;53.362;58.948;2022-10-31T00:20:14;4.25;;;2.40;;
49942;SDS011;36011;53.362;58.948;2022-10-31T00:23:17;3.40;;;3.00;;
49942;SDS011;36011;53.362;58.948;2022-10-31T00:26:22;3.72;;;2.70;;
49942;SDS011;36011;53.362;58.948;2022-10-31T00:29:26;2.05;;;1.80;;
49942;SDS011;36011;53.362;58.948;2022-10-31T00:32:28;3.90;;;2.60;;
49942;SDS011;36011;53.362;58.948;2022-10-31T00:35:35;4.43;;;2.70;;
49942;SDS011;36011;53.362;58.948;2022-10-31T00:38:36;4.43;;;3.35;;
49942;SDS011;36011;53.362;58.948;2022-10-31T00:42:01;6.05;;;3.30;;
49942;SDS011;36011;53.362;58.948;2022-10-31T00:45:02;4.68;;;2.90;;
49942;SDS011;36011;53.362;58.948;2022-10-31T00:48:04;3.80;;;2.95;;
49942;SDS011;36011;53.362;58.948;2022-10-31T00:54:12;4.50;;;2.90;;
49942;SDS011;36011;53.362;58.948;2022-10-31T00:57:13;3.65;;;2.33;;
49942;SDS011;36011;53.362;58.948;2022-10-31T01:00:20;3.65;;;2.53;;
49942;SDS011;36011;53.362;58.948;2022-10-31T01:03:25;4.72;;;2.95;;
49942;SDS011;36011;53.362;58.948;2022-10-31T01:06:30;3.70;;;2.40;;
49942;SDS011;36011;53.362;58.948;2022-10-31T01:09:40;2.15;;;1.95;;
49942;SDS011;36011;53.362;58.948;2022-10-31T01:12:47;4.28;;;2.40;;
49942;SDS011;36011;53.362;58.948;2022-10-31T01:15:55;5.45;;;2.90;;
49942;SDS011;36011;53.362;58.948;2022-10-31T01:18:59;2.35;;;1.55;;
49942;SDS011;36011;53.362;58.948;2022-10-31T01:22:03;2.00;;;0.98;;
49942;SDS011;36011;53.362;58.948;2022-10-31T01:25:04;2.38;;;1.70;;
49942;SDS011;36011;53.362;58.948;2022-10-31T01:28:07;3.08;;;2.15;;
49942;SDS011;36011;53.362;58.948;2022-10-31T01:31:11;3.22;;;1.92;;
49942;SDS011;36011;53.362;58.948;2022-10-31T01:34:15;2.70;;;1.98;;
49942;SDS011;36011;53.362;58.948;2022-10-31T01:37:22;1.73;;;1.27;;
49942;SDS011;36011;53.362;58.948;2022-10-31T01:40:28;2.47;;;1.77;;
49942;SDS011;36011;53.362;58.948;2022-10-31T01:43:43;3.35;;;1.48;;
49942;SDS011;36011;53.362;58.948;2022-10-31T01:46:58;2.13;;;1.33;;
49942;SDS011;36011;53.362;58.948;2022-10-31T01:50:06;2.30;;;1.40;;
49942;SDS011;36011;53.362;58.948;2022-10-31T01:53:15;1.88;;;1.38;;
49942;SDS011;36011;53.362;58.948;2022-10-31T01:56:20;2.97;;;1.83;;
49942;SDS011;36011;53.362;58.948;2022-10-31T01:59:27;1.90;;;1.58;;
49942;SDS011;36011;53.362;58.948;2022-10-31T02:02:40;2.42;;;1.42;;
49942;SDS011;36011;53.362;58.948;2022-10-31T02:05:51;2.58;;;1.77;;
49942;SDS011;36011;53.362;58.948;2022-10-31T02:08:58;3.92;;;1.75;;
49942;SDS011;36011;53.362;58.948;2022-10-31T02:12:04;2.10;;;1.70;;
49942;SDS011;36011;53.362;58.948;2022-10-31T02:15:12;2.00;;;1.27;;
49942;SDS011;36011;53.362;58.948;2022-10-31T02:18:16;1.58;;;1.30;;
49942;SDS011;36011;53.362;58.948;2022-10-31T02:24:58;2.70;;;1.30;;
49942;SDS011;36011;53.362;58.948;2022-10-31T02:29:00;0.82;;;0.82;;
49942;SDS011;36011;53.362;58.948;2022-10-31T02:32:25;0.98;;;0.90;;
49942;SDS011;36011;53.362;58.948;2022-10-31T02:45:57;1.52;;;0.90;;
49942;SDS011;36011;53.362;58.948;2022-10-31T02:49:10;1.70;;;0.73;;
49942;SDS011;36011;53.362;58.948;2022-10-31T02:52:26;0.90;;;0.63;;
49942;SDS011;36011;53.362;58.948;2022-10-31T02:58:36;0.85;;;0.60;;
49942;SDS011;36011;53.362;58.948;2022-10-31T03:08:27;0.75;;;0.75;;
49942;SDS011;36011;53.362;58.948;2022-10-31T03:15:08;1.02;;;0.70;;
49942;SDS011;36011;53.362;58.948;2022-10-31T03:21:52;0.98;;;0.60;;
49942;SDS011;36011;53.362;58.948;2022-10-31T03:25:00;1.08;;;0.73;;
49942;SDS011;36011;53.362;58.948;2022-10-31T03:28:08;0.93;;;0.70;;
49942;SDS011;36011;53.362;58.948;2022-10-31T03:31:17;3.20;;;0.77;;
49942;SDS011;36011;53.362;58.948;2022-10-31T03:34:22;1.02;;;0.75;;
49942;SDS011;36011;53.362;58.948;2022-10-31T03:37:32;1.33;;;0.98;;
49942;SDS011;36011;53.362;58.948;2022-10-31T03:40:40;1.58;;;1.20;;
49942;SDS011;36011;53.362;58.948;2022-10-31T03:44:06;1.80;;;1.38;;
49942;SDS011;36011;53.362;58.948;2022-10-31T03:47:15;1.38;;;0.90;;
49942;SDS011;36011;53.362;58.948;2022-10-31T03:50:17;0.75;;;0.70;;
49942;SDS011;36011;53.362;58.948;2022-10-31T03:53:26;1.42;;;1.08;;
49942;SDS011;36011;53.362;58.948;2022-10-31T03:56:34;2.92;;;0.80;;
49942;SDS011;36011;53.362;58.948;2022-10-31T03:59:42;1.40;;;0.77;;
49942;SDS011;36011;53.362;58.948;2022-10-31T04:02:59;0.95;;;0.85;;
49942;SDS011;36011;53.362;58.948;2022-10-31T04:06:05;0.80;;;0.80;;
49942;SDS011;36011;53.362;58.948;2022-10-31T04:09:11;1.63;;;1.13;;
49942;SDS011;36011;53.362;58.948;2022-10-31T04:12:19;1.00;;;0.70;;
49942;SDS011;36011;53.362;58.948;2022-10-31T04:15:26;1.58;;;1.05;;
49942;SDS011;36011;53.362;58.948;2022-10-31T04:18:35;1.25;;;1.13;;
49942;SDS011;36011;53.362;58.948;2022-10-31T04:21:36;0.80;;;0.70;;
49942;SDS011;36011;53.362;58.948;2022-10-31T04:24:46;0.90;;;0.85;;
49942;SDS011;36011;53.362;58.948;2022-10-31T04:27:50;0.82;;;0.57;;
49942;SDS011;36011;53.362;58.948;2022-10-31T04:30:58;0.55;;;0.40;;
49942;SDS011;36011;53.362;58.948;2022-10-31T04:33:59;0.80;;;0.60;;
49942;SDS011;36011;53.362;58.948;2022-10-31T04:37:03;0.55;;;0.52;;
49942;SDS011;36011;53.362;58.948;2022-10-31T04:40:08;0.70;;;0.60;;
49942;SDS011;36011;53.362;58.948;2022-10-31T04:43:10;1.30;;;1.08;;
49942;SDS011;36011;53.362;58.948;2022-10-31T04:46:19;0.77;;;0.70;;
49942;SDS011;36011;53.362;58.948;2022-10-31T04:49:25;0.68;;;0.45;;
49942;SDS011;36011;53.362;58.948;2022-10-31T04:52:29;0.70;;;0.70;;
49942;SDS011;36011;53.362;58.948;2022-10-31T04:55:30;0.68;;;0.60;;
49942;SDS011;36011;53.362;58.948;2022-10-31T04:58:32;0.40;;;0.40;;
49942;SDS011;36011;53.362;58.948;2022-10-31T05:01:33;1.08;;;0.80;;
49942;SDS011;36011;53.362;58.948;2022-10-31T05:04:37;0.30;;;0.30;;
49942;SDS011;36011;53.362;58.948;2022-10-31T05:07:39;0.73;;;0.55;;
49942;SDS011;36011;53.362;58.948;2022-10-31T05:10:44;1.17;;;0.82;;
49942;SDS011;36011;53.362;58.948;2022-10-31T05:13:48;1.05;;;0.63;;
49942;SDS011;36011;53.362;58.948;2022-10-31T05:16:49;0.80;;;0.80;;
49942;SDS011;36011;53.362;58.948;2022-10-31T05:19:51;1.58;;;1.02;;
49942;SDS011;36011;53.362;58.948;2022-10-31T05:22:56;0.50;;;0.50;;
49942;SDS011;36011;53.362;58.948;2022-10-31T05:26:00;0.98;;;0.98;;
49942;SDS011;36011;53.362;58.948;2022-10-31T05:29:04;1.85;;;0.77;;
49942;SDS011;36011;53.362;58.948;2022-10-31T05:32:05;0.95;;;0.75;;
49942;SDS011;36011;53.362;58.948;2022-10-31T05:35:07;0.95;;;0.93;;
49942;SDS011;36011;53.362;58.948;2022-10-31T05:38:15;1.08;;;0.80;;
49942;SDS011;36011;53.362;58.948;2022-10-31T05:41:18;1.40;;;1.20;;
49942;SDS011;36011;53.362;58.948;2022-10-31T05:44:22;1.95;;;1.30;;
49942;SDS011;36011;53.362;58.948;2022-10-31T05:47:24;1.08;;;0.98;;
49942;SDS011;36011;53.362;58.948;2022-10-31T05:50:26;1.13;;;1.02;;
49942;SDS011;36011;53.362;58.948;2022-10-31T05:53:32;0.85;;;0.80;;
49942;SDS011;36011;53.362;58.948;2022-10-31T05:56:33;1.70;;;1.13;;
49942;SDS011;36011;53.362;58.948;2022-10-31T05:59:39;1.15;;;1.05;;
49942;SDS011;36011;53.362;58.948;2022-10-31T06:02:46;1.63;;;1.42;;
49942;SDS011;36011;53.362;58.948;2022-10-31T06:05:50;1.25;;;1.15;;
49942;SDS011;36011;53.362;58.948;2022-10-31T06:08:51;0.73;;;0.45;;
49942;SDS011;36011;53.362;58.948;2022-10-31T06:11:53;1.58;;;1.25;;
49942;SDS011;36011;53.362;58.948;2022-10-31T06:15:00;2.55;;;2.00;;
49942;SDS011;36011;53.362;58.948;2022-10-31T06:18:09;1.85;;;1.20;;
49942;SDS011;36011;53.362;58.948;2022-10-31T06:21:13;2.67;;;1.20;;
49942;SDS011;36011;53.362;58.948;2022-10-31T06:24:15;1.63;;;0.90;;
49942;SDS011;36011;53.362;58.948;2022-10-31T06:27:16;1.60;;;1.02;;
49942;SDS011;36011;53.362;58.948;2022-10-31T06:30:18;2.60;;;1.50;;
49942;SDS011;36011;53.362;58.948;2022-10-31T06:36:26;2.33;;;1.20;;
49942;SDS011;36011;53.362;58.948;2022-10-31T06:39:28;3.53;;;1.83;;
49942;SDS011;36011;53.362;58.948;2022-10-31T06:42:31;1.88;;;1.67;;
49942;SDS011;36011;53.362;58.948;2022-10-31T06:45:35;2.25;;;2.05;;
49942;SDS011;36011;53.362;58.948;2022-10-31T06:48:41;2.53;;;1.45;;
49942;SDS011;36011;53.362;58.948;2022-10-31T06:51:49;1.83;;;1.60;;
49942;SDS011;36011;53.362;58.948;2022-10-31T06:54:53;2.22;;;2.03;;
49942;SDS011;36011;53.362;58.948;2022-10-31T06:57:55;1.92;;;1.70;;
49942;SDS011;36011;53.362;58.948;2022-10-31T07:00:59;2.92;;;2.13;;
49942;SDS011;36011;53.362;58.948;2022-10-31T07:04:03;2.47;;;1.63;;
49942;SDS011;36011;53.362;58.948;2022-10-31T07:07:13;3.42;;;2.38;;
49942;SDS011;36011;53.362;58.948;2022-10-31T07:10:17;4.22;;;2.88;;
49942;SDS011;36011;53.362;58.948;2022-10-31T07:13:20;4.70;;;2.83;;
49942;SDS011;36011;53.362;58.948;2022-10-31T07:16:28;2.70;;;2.13;;
49942;SDS011;36011;53.362;58.948;2022-10-31T07:19:29;4.18;;;2.30;;
49942;SDS011;36011;53.362;58.948;2022-10-31T07:22:36;1.92;;;1.35;;
49942;SDS011;36011;53.362;58.948;2022-10-31T07:25:41;2.13;;;1.75;;
49942;SDS011;36011;53.362;58.948;2022-10-31T07:28:45;2.83;;;1.98;;
49942;SDS011;36011;53.362;58.948;2022-10-31T07:31:49;2.92;;;2.47;;
49942;SDS011;36011;53.362;58.948;2022-10-31T07:34:53;2.25;;;2.05;;
49942;SDS011;36011;53.362;58.948;2022-10-31T07:37:55;3.72;;;2.20;;
49942;SDS011;36011;53.362;58.948;2022-10-31T07:40:59;4.18;;;2.45;;
49942;SDS011;36011;53.362;58.948;2022-10-31T07:44:03;2.90;;;2.53;;
49942;SDS011;36011;53.362;58.948;2022-10-31T07:47:04;3.00;;;2.40;;
49942;SDS011;36011;53.362;58.948;2022-10-31T07:50:07;2.03;;;1.60;;
49942;SDS011;36011;53.362;58.948;2022-10-31T09:03:13;2.58;;;2.17;;
49942;SDS011;36011;53.362;58.948;2022-10-31T09:06:23;3.13;;;2.65;;
49942;SDS011;36011;53.362;58.948;2022-10-31T09:09:28;2.00;;;1.80;;
49942;SDS011;36011;53.362;58.948;2022-10-31T09:12:31;3.00;;;2.30;;
49942;SDS011;36011;53.362;58.948;2022-10-31T09:15:39;1.70;;;1.52;;
49942;SDS011;36011;53.362;58.948;2022-10-31T09:18:46;2.72;;;2.38;;
49942;SDS011;36011;53.362;58.948;2022-10-31T09:21:56;3.47;;;2.00;;
49942;SDS011;36011;53.362;58.948;2022-10-31T09:25:00;3.83;;;3.47;;
49942;SDS011;36011;53.362;58.948;2022-10-31T09:28:07;5.60;;;3.50;;
49942;SDS011;36011;53.362;58.948;2022-10-31T09:31:14;3.95;;;3.40;;
49942;SDS011;36011;53.362;58.948;2022-10-31T09:34:16;4.28;;;3.67;;
49942;SDS011;36011;53.362;58.948;2022-10-31T09:37:19;5.57;;;3.83;;
49942;SDS011;36011;53.362;58.948;2022-10-31T09:40:30;6.05;;;3.75;;
49942;SDS011;36011;53.362;58.948;2022-10-31T09:43:49;4.30;;;3.67;;
49942;SDS011;36011;53.362;58.948;2022-10-31T09:50:22;4.57;;;3.65;;
49942;SDS011;36011;53.362;58.948;2022-10-31T09:53:42;7.25;;;3.80;;
49942;SDS011;36011;53.362;58.948;2022-10-31T09:56:51;3.53;;;2.97;;
49942;SDS011;36011;53.362;58.948;2022-10-31T09:59:59;3.40;;;2.22;;
49942;SDS011;36011;53.362;58.948;2022-10-31T10:06:32;2.70;;;1.90;;
49942;SDS011;36011;53.362;58.948;2022-10-31T10:09:37;2.38;;;1.90;;
49942;SDS011;36011;53.362;58.948;2022-10-31T10:26:43;4.68;;;2.10;;
49942;SDS011;36011;53.362;58.948;2022-10-31T10:33:25;10.45;;;2.92;;
49942;SDS011;36011;53.362;58.948;2022-10-31T10:37:36;4.72;;;2.67;;
49942;SDS011;36011;53.362;58.948;2022-10-31T10:40:17;8.02;;;3.10;;
49942;SDS011;36011;53.362;58.948;2022-10-31T10:43:33;6.32;;;3.72;;
49942;SDS011;36011;53.362;58.948;2022-10-31T10:46:43;6.22;;;3.42;;
49942;SDS011;36011;53.362;58.948;2022-10-31T10:50:22;4.90;;;3.70;;
49942;SDS011;36011;53.362;58.948;2022-10-31T10:53:44;6.97;;;4.68;;
49942;SDS011;36011;53.362;58.948;2022-10-31T10:57:22;5.35;;;3.67;;
49942;SDS011;36011;53.362;58.948;2022-10-31T11:00:34;6.95;;;3.28;;
49942;SDS011;36011;53.362;58.948;2022-10-31T11:03:48;4.85;;;3.50;;
49942;SDS011;36011;53.362;58.948;2022-10-31T11:10:04;2.58;;;1.90;;
49942;SDS011;36011;53.362;58.948;2022-10-31T11:13:22;8.70;;;3.75;;
49942;SDS011;36011;53.362;58.948;2022-10-31T11:16:30;8.20;;;3.30;;
49942;SDS011;36011;53.362;58.948;2022-10-31T11:19:44;6.25;;;2.97;;
49942;SDS011;36011;53.362;58.948;2022-10-31T11:22:49;3.55;;;2.35;;
49942;SDS011;36011;53.362;58.948;2022-10-31T11:26:04;5.60;;;2.80;;
49942;SDS011;36011;53.362;58.948;2022-10-31T11:29:13;4.65;;;3.00;;
49942;SDS011;36011;53.362;58.948;2022-10-31T11:32:30;4.25;;;3.25;;
49942;SDS011;36011;53.362;58.948;2022-10-31T11:35:38;13.77;;;3.97;;
49942;SDS011;36011;53.362;58.948;2022-10-31T11:38:43;3.08;;;2.28;;
49942;SDS011;36011;53.362;58.948;2022-10-31T11:45:16;9.68;;;3.70;;
49942;SDS011;36011;53.362;58.948;2022-10-31T11:48:29;10.25;;;4.45;;
49942;SDS011;36011;53.362;58.948;2022-10-31T11:51:33;5.80;;;3.60;;
49942;SDS011;36011;53.362;58.948;2022-10-31T11:58:25;8.13;;;5.00;;
49942;SDS011;36011;53.362;58.948;2022-10-31T12:01:32;18.58;;;3.95;;
49942;SDS011;36011;53.362;58.948;2022-10-31T12:04:38;7.07;;;3.63;;
49942;SDS011;36011;53.362;58.948;2022-10-31T12:07:47;10.73;;;4.70;;
49942;SDS011;36011;53.362;58.948;2022-10-31T12:17:24;10.90;;;3.83;;
49942;SDS011;36011;53.362;58.948;2022-10-31T12:21:03;3.80;;;2.78;;
49942;SDS011;36011;53.362;58.948;2022-10-31T12:34:51;10.80;;;3.78;;
49942;SDS011;36011;53.362;58.948;2022-10-31T12:58:33;6.28;;;3.83;;
49942;SDS011;36011;53.362;58.948;2022-10-31T13:01:59;7.07;;;4.22;;
49942;SDS011;36011;53.362;58.948;2022-10-31T13:08:42;10.00;;;3.45;;
49942;SDS011;36011;53.362;58.948;2022-10-31T13:11:51;9.10;;;4.82;;
49942;SDS011;36011;53.362;58.948;2022-10-31T13:15:01;7.10;;;3.97;;
49942;SDS011;36011;53.362;58.948;2022-10-31T13:31:27;10.27;;;5.85;;
49942;SDS011;36011;53.362;58.948;2022-10-31T13:34:31;14.07;;;5.13;;
49942;SDS011;36011;53.362;58.948;2022-10-31T13:37:44;9.52;;;6.10;;
49942;SDS011;36011;53.362;58.948;2022-10-31T13:40:56;4.85;;;3.55;;
49942;SDS011;36011;53.362;58.948;2022-10-31T13:44:18;7.63;;;5.15;;
49942;SDS011;36011;53.362;58.948;2022-10-31T13:47:28;5.57;;;3.42;;
49942;SDS011;36011;53.362;58.948;2022-10-31T13:50:35;8.55;;;4.68;;
49942;SDS011;36011;53.362;58.948;2022-10-31T13:56:49;10.65;;;4.20;;
49942;SDS011;36011;53.362;58.948;2022-10-31T14:00:03;8.85;;;5.65;;
49942;SDS011;36011;53.362;58.948;2022-10-31T14:03:20;4.22;;;3.05;;
49942;SDS011;36011;53.362;58.948;2022-10-31T14:06:33;8.50;;;5.60;;
49942;SDS011;36011;53.362;58.948;2022-10-31T14:14:33;7.43;;;4.72;;
49942;SDS011;36011;53.362;58.948;2022-10-31T14:22:33;3.83;;;3.30;;
49942;SDS011;36011;53.362;58.948;2022-10-31T14:26:30;14.23;;;5.47;;
49942;SDS011;36011;53.362;58.948;2022-10-31T14:29:37;10.10;;;5.25;;
49942;SDS011;36011;53.362;58.948;2022-10-31T14:32:44;7.45;;;3.03;;
49942;SDS011;36011;53.362;58.948;2022-10-31T14:36:15;8.77;;;5.32;;
49942;SDS011;36011;53.362;58.948;2022-10-31T14:50:09;4.78;;;3.65;;
49942;SDS011;36011;53.362;58.948;2022-10-31T14:53:36;4.80;;;3.22;;
49942;SDS011;36011;53.362;58.948;2022-10-31T14:56:58;3.47;;;2.88;;
49942;SDS011;36011;53.362;58.948;2022-10-31T15:00:19;5.60;;;4.50;;
49942;SDS011;36011;53.362;58.948;2022-10-31T15:03:28;6.03;;;3.77;;
49942;SDS011;36011;53.362;58.948;2022-10-31T15:06:43;5.97;;;3.47;;
49942;SDS011;36011;53.362;58.948;2022-10-31T15:10:03;6.53;;;4.93;;
49942;SDS011;36011;53.362;58.948;2022-10-31T15:13:10;3.88;;;3.47;;
49942;SDS011;36011;53.362;58.948;2022-10-31T15:16:18;9.52;;;3.85;;
49942;SDS011;36011;53.362;58.948;2022-10-31T15:19:35;5.20;;;3.97;;
49942;SDS011;36011;53.362;58.948;2022-10-31T15:23:01;7.68;;;4.90;;
49942;SDS011;36011;53.362;58.948;2022-10-31T15:26:20;8.00;;;5.15;;
49942;SDS011;36011;53.362;58.948;2022-10-31T15:29:24;5.85;;;4.68;;
49942;SDS011;36011;53.362;58.948;2022-10-31T15:32:33;7.55;;;4.70;;
49942;SDS011;36011;53.362;58.948;2022-10-31T15:35:37;4.95;;;3.83;;
49942;SDS011;36011;53.362;58.948;2022-10-31T15:38:41;6.50;;;5.07;;
49942;SDS011;36011;53.362;58.948;2022-10-31T15:44:58;8.68;;;5.97;;
49942;SDS011;36011;53.362;58.948;2022-10-31T15:48:23;9.18;;;5.53;;
49942;SDS011;36011;53.362;58.948;2022-10-31T15:51:28;8.32;;;4.90;;
49942;SDS011;36011;53.362;58.948;2022-10-31T15:54:36;10.18;;;5.38;;
49942;SDS011;36011;53.362;58.948;2022-10-31T15:57:52;8.35;;;6.18;;
49942;SDS011;36011;53.362;58.948;2022-10-31T16:01:05;8.68;;;5.38;;
49942;SDS011;36011;53.362;58.948;2022-10-31T16:04:22;8.27;;;5.13;;
49942;SDS011;36011;53.362;58.948;2022-10-31T16:07:29;10.32;;;7.43;;
49942;SDS011;36011;53.362;58.948;2022-10-31T16:14:27;11.80;;;8.05;;
49942;SDS011;36011;53.362;58.948;2022-10-31T16:17:04;8.32;;;5.70;;
49942;SDS011;36011;53.362;58.948;2022-10-31T16:20:27;8.02;;;5.93;;
49942;SDS011;36011;53.362;58.948;2022-10-31T16:23:32;12.10;;;7.38;;
49942;SDS011;36011;53.362;58.948;2022-10-31T16:26:36;10.07;;;6.40;;
49942;SDS011;36011;53.362;58.948;2022-10-31T16:29:45;10.45;;;6.65;;
49942;SDS011;36011;53.362;58.948;2022-10-31T16:32:55;13.25;;;8.40;;
49942;SDS011;36011;53.362;58.948;2022-10-31T16:35:59;11.73;;;8.13;;
49942;SDS011;36011;53.362;58.948;2022-10-31T16:39:04;14.80;;;8.55;;
49942;SDS011;36011;53.362;58.948;2022-10-31T16:42:07;11.15;;;6.78;;
49942;SDS011;36011;53.362;58.948;2022-10-31T16:45:14;14.88;;;8.73;;
49942;SDS011;36011;53.362;58.948;2022-10-31T16:48:24;13.40;;;7.97;;
49942;SDS011;36011;53.362;58.948;2022-10-31T16:51:27;13.68;;;8.75;;
49942;SDS011;36011;53.362;58.948;2022-10-31T16:54:31;10.25;;;6.43;;
49942;SDS011;36011;53.362;58.948;2022-10-31T16:57:40;14.05;;;8.27;;
49942;SDS011;36011;53.362;58.948;2022-10-31T17:00:47;8.32;;;6.32;;
49942;SDS011;36011;53.362;58.948;2022-10-31T17:03:53;11.27;;;6.57;;
49942;SDS011;36011;53.362;58.948;2022-10-31T17:06:59;12.07;;;7.93;;
49942;SDS011;36011;53.362;58.948;2022-10-31T17:10:03;11.55;;;6.13;;
49942;SDS011;36011;53.362;58.948;2022-10-31T17:13:19;12.38;;;7.50;;
49942;SDS011;36011;53.362;58.948;2022-10-31T17:16:25;12.52;;;8.18;;
49942;SDS011;36011;53.362;58.948;2022-10-31T17:19:27;14.40;;;9.07;;
49942;SDS011;36011;53.362;58.948;2022-10-31T17:22:32;12.40;;;7.78;;
49942;SDS011;36011;53.362;58.948;2022-10-31T17:25:42;7.50;;;5.57;;
49942;SDS011;36011;53.362;58.948;2022-10-31T17:28:46;11.70;;;8.13;;
49942;SDS011;36011;53.362;58.948;2022-10-31T17:31:50;10.32;;;7.13;;
49942;SDS011;36011;53.362;58.948;2022-10-31T17:37:56;10.52;;;6.53;;
49942;SDS011;36011;53.362;58.948;2022-10-31T17:41:09;10.88;;;6.65;;
49942;SDS011;36011;53.362;58.948;2022-10-31T17:44:14;11.13;;;7.10;;
49942;SDS011;36011;53.362;58.948;2022-10-31T17:47:20;8.15;;;5.65;;
49942;SDS011;36011;53.362;58.948;2022-10-31T17:50:25;11.25;;;7.13;;
49942;SDS011;36011;53.362;58.948;2022-10-31T17:56:28;7.65;;;5.22;;
49942;SDS011;36011;53.362;58.948;2022-10-31T17:59:33;9.88;;;6.72;;
49942;SDS011;36011;53.362;58.948;2022-10-31T18:02:34;10.98;;;6.88;;
49942;SDS011;36011;53.362;58.948;2022-10-31T18:05:38;9.88;;;7.57;;
49942;SDS011;36011;53.362;58.948;2022-10-31T18:08:52;10.60;;;6.75;;
49942;SDS011;36011;53.362;58.948;2022-10-31T18:11:59;9.25;;;6.30;;
49942;SDS011;36011;53.362;58.948;2022-10-31T18:15:03;10.60;;;7.68;;
49942;SDS011;36011;53.362;58.948;2022-10-31T18:18:08;9.55;;;7.38;;
49942;SDS011;36011;53.362;58.948;2022-10-31T18:21:14;9.85;;;7.10;;
49942;SDS011;36011;53.362;58.948;2022-10-31T18:24:18;10.30;;;7.28;;
49942;SDS011;36011;53.362;58.948;2022-10-31T18:27:20;12.43;;;8.82;;
49942;SDS011;36011;53.362;58.948;2022-10-31T18:30:24;13.23;;;8.50;;
49942;SDS011;36011;53.362;58.948;2022-10-31T18:33:29;11.48;;;7.90;;
49942;SDS011;36011;53.362;58.948;2022-10-31T18:36:33;11.00;;;7.18;;
49942;SDS011;36011;53.362;58.948;2022-10-31T18:39:43;7.57;;;5.25;;
49942;SDS011;36011;53.362;58.948;2022-10-31T18:46:19;12.98;;;7.45;;
49942;SDS011;36011;53.362;58.948;2022-10-31T18:49:24;12.00;;;7.95;;
49942;SDS011;36011;53.362;58.948;2022-10-31T18:52:28;10.80;;;6.13;;
49942;SDS011;36011;53.362;58.948;2022-10-31T18:55:30;13.82;;;9.15;;
49942;SDS011;36011;53.362;58.948;2022-10-31T18:58:31;13.60;;;9.85;;
49942;SDS011;36011;53.362;58.948;2022-10-31T19:01:38;11.60;;;7.75;;
49942;SDS011;36011;53.362;58.948;2022-10-31T19:04:40;13.73;;;8.63;;
49942;SDS011;36011;53.362;58.948;2022-10-31T19:07:41;14.52;;;9.35;;
49942;SDS011;36011;53.362;58.948;2022-10-31T19:10:44;13.63;;;8.05;;
49942;SDS011;36011;53.362;58.948;2022-10-31T19:13:48;16.90;;;9.88;;
49942;SDS011;36011;53.362;58.948;2022-10-31T19:16:54;14.55;;;8.40;;
49942;SDS011;36011;53.362;58.948;2022-10-31T19:19:58;14.95;;;10.00;;
49942;SDS011;36011;53.362;58.948;2022-10-31T19:23:01;15.30;;;10.10;;
49942;SDS011;36011;53.362;58.948;2022-10-31T19:26:05;12.43;;;8.75;;
49942;SDS011;36011;53.362;58.948;2022-10-31T19:32:13;15.63;;;9.15;;
49942;SDS011;36011;53.362;58.948;2022-10-31T19:35:18;10.85;;;8.43;;
49942;SDS011;36011;53.362;58.948;2022-10-31T19:38:24;14.23;;;9.25;;
49942;SDS011;36011;53.362;58.948;2022-10-31T19:41:27;10.45;;;6.57;;
49942;SDS011;36011;53.362;58.948;2022-10-31T19:44:32;12.50;;;8.48;;
49942;SDS011;36011;53.362;58.948;2022-10-31T19:47:36;8.05;;;5.85;;
49942;SDS011;36011;53.362;58.948;2022-10-31T19:50:39;10.82;;;7.35;;
49942;SDS011;36011;53.362;58.948;2022-10-31T19:53:41;6.97;;;5.85;;
49942;SDS011;36011;53.362;58.948;2022-10-31T19:56:43;8.00;;;5.72;;
49942;SDS011;36011;53.362;58.948;2022-10-31T19:59:50;9.45;;;6.53;;
49942;SDS011;36011;53.362;58.948;2022-10-31T20:02:56;8.18;;;5.68;;
49942;SDS011;36011;53.362;58.948;2022-10-31T20:06:01;8.40;;;5.40;;
49942;SDS011;36011;53.362;58.948;2022-10-31T20:09:07;9.90;;;7.03;;
49942;SDS011;36011;53.362;58.948;2022-10-31T20:12:10;5.18;;;3.90;;
49942;SDS011;36011;53.362;58.948;2022-10-31T20:15:11;9.38;;;6.90;;
49942;SDS011;36011;53.362;58.948;2022-10-31T20:18:15;5.18;;;3.85;;
49942;SDS011;36011;53.362;58.948;2022-10-31T20:21:20;8.25;;;6.05;;
49942;SDS011;36011;53.362;58.948;2022-10-31T20:24:29;10.48;;;6.80;;
49942;SDS011;36011;53.362;58.948;2022-10-31T20:27:34;7.53;;;4.10;;
49942;SDS011;36011;53.362;58.948;2022-10-31T20:30:40;7.88;;;6.18;;
49942;SDS011;36011;53.362;58.948;2022-10-31T20:33:47;9.95;;;6.15;;
49942;SDS011;36011;53.362;58.948;2022-10-31T20:36:57;9.00;;;5.63;;
49942;SDS011;36011;53.362;58.948;2022-10-31T20:40:04;7.65;;;5.88;;
49942;SDS011;36011;53.362;58.948;2022-10-31T20:43:06;7.45;;;4.75;;
49942;SDS011;36011;53.362;58.948;2022-10-31T20:46:41;6.88;;;4.55;;
49942;SDS011;36011;53.362;58.948;2022-10-31T20:49:40;6.00;;;3.80;;
49942;SDS011;36011;53.362;58.948;2022-10-31T20:52:46;7.00;;;4.15;;
49942;SDS011;36011;53.362;58.948;2022-10-31T20:56:00;6.93;;;4.88;;
49942;SDS011;36011;53.362;58.948;2022-10-31T20:59:08;5.97;;;4.60;;
49942;SDS011;36011;53.362;58.948;2022-10-31T21:02:10;7.90;;;5.55;;
49942;SDS011;36011;53.362;58.948;2022-10-31T21:05:11;7.15;;;5.10;;
49942;SDS011;36011;53.362;58.948;2022-10-31T21:08:13;5.47;;;4.43;;
49942;SDS011;36011;53.362;58.948;2022-10-31T21:14:21;6.35;;;3.53;;
49942;SDS011;36011;53.362;58.948;2022-10-31T21:17:26;3.63;;;2.72;;
49942;SDS011;36011;53.362;58.948;2022-10-31T21:20:28;5.60;;;4.00;;
49942;SDS011;36011;53.362;58.948;2022-10-31T21:23:34;5.93;;;3.80;;
49942;SDS011;36011;53.362;58.948;2022-10-31T21:26:37;4.93;;;3.55;;
49942;SDS011;36011;53.362;58.948;2022-10-31T21:32:41;3.03;;;2.20;;
49942;SDS011;36011;53.362;58.948;2022-10-31T21:35:49;4.20;;;2.50;;
49942;SDS011;36011;53.362;58.948;2022-10-31T21:38:51;1.83;;;1.27;;
49942;SDS011;36011;53.362;58.948;2022-10-31T21:41:59;2.13;;;1.50;;
49942;SDS011;36011;53.362;58.948;2022-10-31T21:45:04;2.08;;;1.63;;
49942;SDS011;36011;53.362;58.948;2022-10-31T21:48:11;3.08;;;2.55;;
49942;SDS011;36011;53.362;58.948;2022-10-31T21:51:34;4.10;;;3.15;;
49942;SDS011;36011;53.362;58.948;2022-10-31T21:54:37;2.95;;;2.25;;
49942;SDS011;36011;53.362;58.948;2022-10-31T21:57:41;3.30;;;2.90;;
49942;SDS011;36011;53.362;58.948;2022-10-31T22:00:42;3.05;;;2.30;;
49942;SDS011;36011;53.362;58.948;2022-10-31T22:03:47;1.90;;;1.73;;
49942;SDS011;36011;53.362;58.948;2022-10-31T22:06:49;2.33;;;2.13;;
49942;SDS011;36011;53.362;58.948;2022-10-31T22:09:50;2.40;;;2.05;;
49942;SDS011;36011;53.362;58.948;2022-10-31T22:12:52;3.03;;;2.38;;
49942;SDS011;36011;53.362;58.948;2022-10-31T22:16:03;2.28;;;1.63;;
49942;SDS011;36011;53.362;58.948;2022-10-31T22:19:06;2.45;;;2.20;;
49942;SDS011;36011;53.362;58.948;2022-10-31T22:22:15;3.25;;;2.05;;
49942;SDS011;36011;53.362;58.948;2022-10-31T22:25:16;2.90;;;2.22;;
49942;SDS011;36011;53.362;58.948;2022-10-31T22:28:18;3.95;;;2.75;;
49942;SDS011;36011;53.362;58.948;2022-10-31T22:31:25;3.92;;;2.55;;
49942;SDS011;36011;53.362;58.948;2022-10-31T22:34:30;2.78;;;2.35;;